Time;durP1;ratioP1;P1;durP2;ratioP2;P2;SDS_P1;SDS_P2;PMS_P1;PMS_P2;Temp;Humidity;BMP_temperature;BMP_pressure;BME280_temperature;BME280_humidity;BME280_pressure;Samples;Min_cycle;Max_cycle;Signal;HPM_P1;HPM_P2
2022/01/10 00:02:07;;;;;;;;;;;;;;;;;;5049267;28;19947;-66
2022/01/10 00:04:34;;;;;;;;;;;;;;;;;;5049524;28;19926;-66
2022/01/10 00:07:01;;;;;;;;;;;;;;;;;;5051053;28;19947;-65
2022/01/10 00:09:28;;;;;;;;;;;;;;;;;;5052828;28;19935;-66
2022/01/10 00:11:55;;;;;;;;;;;;;;;;;;5047493;28;19924;-66
2022/01/10 00:14:21;;;;;;;;;;;;;;;;;;5046936;28;19925;-65
2022/01/10 00:16:48;;;;;;;;;;;;;;;;;;5049804;28;19934;-65
2022/01/10 00:19:15;;;;;;;;;;;;;;;;;;5049452;28;19925;-65
2022/01/10 00:21:42;;;;;;;;;;;;;;;;;;5050690;28;19924;-66
2022/01/10 00:24:09;;;;;;;;;;;;;;;;;;5051127;28;19932;-66
2022/01/10 00:26:36;;;;;;;;;;;;;;;;;;5042318;28;20297;-66
2022/01/10 00:29:03;;;;;;;;;;;;;;;;;;5053240;28;19925;-66
2022/01/10 00:31:30;;;;;;;;;;;;;;;;;;5051556;28;19931;-66
2022/01/10 00:33:57;;;;;;;;;;;;;;;;;;5041489;28;19931;-66
2022/01/10 00:36:25;;;;;;;;;;;;;;;;;;5051827;28;19931;-66
2022/01/10 00:38:52;;;;;;;;;;;;;;;;;;5049230;28;19924;-66
2022/01/10 00:41:19;;;;;;;;;;;;;;;;;;5049468;28;19933;-66
2022/01/10 00:43:48;;;;;;;;;;;;;;;;;;5048715;28;19924;-66
2022/01/10 00:46:15;;;;;;;;;;;;;;;;;;5052198;28;19928;-66
2022/01/10 00:48:42;;;;;;;;;;;;;;;;;;5050154;28;20349;-66
2022/01/10 00:51:09;;;;;;;;;;;;;;;;;;5048000;28;19928;-66
2022/01/10 00:53:36;;;;;;;;;;;;;;;;;;5043422;28;19925;-65
2022/01/10 00:56:02;;;;;;;;;;;;;;;;;;5045704;28;19925;-65
2022/01/10 00:58:29;;;;;;;;;;;;;;;;;;5048321;28;20416;-65
2022/01/10 01:00:56;;;;;;;;;;;;;;;;;;5048829;28;20378;-66
2022/01/10 01:03:23;;;;;;;;;;;;;;;;;;5049069;28;19935;-66
2022/01/10 01:05:50;;;;;;;;;;;;;;;;;;5050960;28;19924;-65
2022/01/10 01:08:17;;;;;;;;;;;;;;;;;;5047384;28;19974;-66
2022/01/10 01:13:38;;;;;;;;;;;;;;;;;;5048361;28;19995;-66
2022/01/10 01:16:18;;;;;;;;;;;;;;;;;;5048381;28;19932;-66
2022/01/10 01:19:09;;;;;;;;;;;;;;;;;;5048614;28;19925;-66
2022/01/10 01:24:21;;;;;;;;;;;;;;;;;;5051963;28;19958;-66
2022/01/10 01:26:48;;;;;;;;;;;;;;;;;;5047320;28;19924;-66
2022/01/10 01:29:15;;;;;;;;;;;;;;;;;;5049456;28;19932;-65
2022/01/10 01:31:43;;;;;;;;;;;;;;;;;;5050072;28;20389;-65
2022/01/10 01:34:10;;;;;;;;;;;;;;;;;;5050219;28;19925;-66
2022/01/10 01:36:38;;;;;;;;;;;;;;;;;;5047167;28;20425;-65
2022/01/10 01:39:10;;;;;;;;;;;;;;;;;;5046962;28;20374;-66
2022/01/10 01:41:41;;;;;;;;;;;;;;;;;;5044934;28;19925;-66
2022/01/10 01:44:08;;;;;;;;;;;;;;;;;;5048929;28;19987;-67
2022/01/10 01:46:35;;;;;;;;;;;;;;;;;;5044251;28;19925;-66
2022/01/10 01:49:02;;;;;;;;;;;;;;;;;;5042274;28;19925;-66
2022/01/10 01:51:29;;;;;;;;;;;;;;;;;;5045726;28;20317;-66
2022/01/10 01:53:56;;;;;;;;;;;;;;;;;;5047450;28;19925;-66
2022/01/10 01:56:23;;;;;;;;;;;;;;;;;;5043954;28;19925;-66
2022/01/10 01:58:52;;;;;;;;;;;;;;;;;;5048335;28;19925;-66
2022/01/10 02:01:19;;;;;;;;;;;;;;;;;;5046831;28;19929;-66
2022/01/10 02:03:46;;;;;;;;;;;;;;;;;;5045676;28;19932;-65
2022/01/10 02:06:13;;;;;;;;;;;;;;;;;;5046473;28;19936;-66
2022/01/10 02:08:40;;;;;;;;;;;;;;;;;;5052367;28;19929;-66
2022/01/10 02:11:07;;;;;;;;;;;;;;;;;;5048528;28;19931;-66
2022/01/10 02:13:34;;;;;;;;;;;;;;;;;;5047382;28;19925;-66
2022/01/10 02:16:03;;;;;;;;;;;;;;;;;;5047771;28;19925;-67
2022/01/10 02:18:30;;;;;;;;;;;;;;;;;;5048764;28;19924;-67
2022/01/10 02:21:00;;;;;;;;;;;;;;;;;;5046500;28;19948;-66
2022/01/10 02:23:27;;;;;;;;;;;;;;;;;;5048094;28;19983;-66
2022/01/10 02:25:54;;;;;;;;;;;;;;;;;;5051677;28;20382;-66
2022/01/10 02:28:21;;;;;;;;;;;;;;;;;;5053442;28;19925;-66
2022/01/10 02:30:52;;;;;;;;;;;;;;;;;;5051373;28;19955;-66
2022/01/10 02:33:19;;;;;;;;;;;;;;;;;;5050565;28;19987;-66
2022/01/10 02:35:54;;;;;;;;;;;;;;;;;;5048780;28;19925;-66
2022/01/10 02:38:21;;;;;;;;;;;;;;;;;;5049877;28;19976;-66
2022/01/10 02:40:50;;;;;;;;;;;;;;;;;;5049044;28;19925;-66
2022/01/10 02:43:18;;;;;;;;;;;;;;;;;;5047350;28;19956;-66
2022/01/10 02:45:45;;;;;;;;;;;;;;;;;;5054611;28;19924;-66
2022/01/10 02:48:12;;;;;;;;;;;;;;;;;;5051400;28;19937;-65
2022/01/10 02:50:39;;;;;;;;;;;;;;;;;;5047729;28;19928;-66
2022/01/10 02:53:06;;;;;;;;;;;;;;;;;;5049086;28;19932;-66
2022/01/10 02:55:33;;;;;;;;;;;;;;;;;;5048413;28;19925;-66
2022/01/10 02:58:00;;;;;;;;;;;;;;;;;;5051465;28;19931;-66
2022/01/10 03:00:27;;;;;;;;;;;;;;;;;;5051576;28;20016;-65
2022/01/10 03:02:55;;;;;;;;;;;;;;;;;;5050478;28;20023;-66
2022/01/10 03:05:22;;;;;;;;;;;;;;;;;;5049684;28;19967;-66
2022/01/10 03:07:49;;;;;;;;;;;;;;;;;;5044607;28;19951;-66
2022/01/10 03:10:16;;;;;;;;;;;;;;;;;;5050298;28;19931;-66
2022/01/10 03:12:43;;;;;;;;;;;;;;;;;;5047118;28;20306;-66
2022/01/10 03:15:10;;;;;;;;;;;;;;;;;;5051947;28;19968;-66
2022/01/10 03:17:37;;;;;;;;;;;;;;;;;;5048249;28;20303;-66
2022/01/10 03:20:04;;;;;;;;;;;;;;;;;;5044817;28;19933;-66
2022/01/10 03:22:31;;;;;;;;;;;;;;;;;;5049373;28;20580;-66
2022/01/10 03:24:58;;;;;;;;;;;;;;;;;;5049657;28;19925;-66
2022/01/10 03:27:25;;;;;;;;;;;;;;;;;;5046810;28;19951;-66
2022/01/10 03:29:52;;;;;;;;;;;;;;;;;;5052597;28;19937;-67
2022/01/10 03:32:19;;;;;;;;;;;;;;;;;;5050146;28;19929;-66
2022/01/10 03:34:46;;;;;;;;;;;;;;;;;;5048021;28;20460;-66
2022/01/10 03:37:13;;;;;;;;;;;;;;;;;;5047960;28;19925;-66
2022/01/10 03:39:40;;;;;;;;;;;;;;;;;;5047869;28;20297;-67
2022/01/10 03:42:07;;;;;;;;;;;;;;;;;;5044726;28;19924;-65
2022/01/10 03:44:34;;;;;;;;;;;;;;;;;;5044674;28;20382;-65
2022/01/10 03:47:02;;;;;;;;;;;;;;;;;;5050781;28;19931;-66
2022/01/10 03:49:29;;;;;;;;;;;;;;;;;;5049383;28;19929;-65
2022/01/10 03:51:56;;;;;;;;;;;;;;;;;;5050691;28;20030;-65
2022/01/10 03:54:23;;;;;;;;;;;;;;;;;;5049140;28;19933;-65
2022/01/10 03:56:50;;;;;;;;;;;;;;;;;;5048005;28;19953;-66
2022/01/10 03:59:17;;;;;;;;;;;;;;;;;;5048864;28;19924;-66
2022/01/10 04:01:44;;;;;;;;;;;;;;;;;;5045820;28;20310;-66
2022/01/10 04:04:11;;;;;;;;;;;;;;;;;;5049490;28;19929;-66
2022/01/10 04:06:38;;;;;;;;;;;;;;;;;;5048805;28;19929;-66
2022/01/10 04:09:05;;;;;;;;;;;;;;;;;;5047940;28;19925;-66
2022/01/10 04:11:32;;;;;;;;;;;;;;;;;;5047518;28;19967;-66
2022/01/10 04:13:59;;;;;;;;;;;;;;;;;;5047774;28;20386;-67
2022/01/10 04:16:26;;;;;;;;;;;;;;;;;;5045900;28;19952;-66
2022/01/10 04:18:53;;;;;;;;;;;;;;;;;;5048957;28;19929;-66
2022/01/10 04:21:20;;;;;;;;;;;;;;;;;;5046268;28;19931;-65
2022/01/10 04:23:47;;;;;;;;;;;;;;;;;;5048975;28;20309;-66
2022/01/10 04:26:14;;;;;;;;;;;;;;;;;;5044662;28;19932;-66
2022/01/10 04:28:41;;;;;;;;;;;;;;;;;;5048807;28;19928;-66
2022/01/10 04:31:10;;;;;;;;;;;;;;;;;;5047053;28;19925;-66
2022/01/10 04:33:37;;;;;;;;;;;;;;;;;;5046875;28;19933;-66
2022/01/10 04:36:04;;;;;;;;;;;;;;;;;;5047219;28;19924;-66
2022/01/10 04:38:31;;;;;;;;;;;;;;;;;;5044289;28;19925;-66
2022/01/10 04:40:58;;;;;;;;;;;;;;;;;;5052027;28;19947;-66
2022/01/10 04:43:25;;;;;;;;;;;;;;;;;;5049380;28;20015;-67
2022/01/10 04:45:52;;;;;;;;;;;;;;;;;;5044971;28;19981;-66
2022/01/10 04:48:19;;;;;;;;;;;;;;;;;;5043907;28;19931;-67
2022/01/10 04:51:11;;;;;;;;;;;;;;;;;;5050353;28;19940;-66
2022/01/10 04:53:38;;;;;;;;;;;;;;;;;;5044026;28;19952;-66
2022/01/10 04:56:05;;;;;;;;;;;;;;;;;;5048355;28;19925;-66
2022/01/10 04:58:32;;;;;;;;;;;;;;;;;;5048614;28;20393;-67
2022/01/10 05:00:59;;;;;;;;;;;;;;;;;;5052373;28;19928;-67
2022/01/10 05:03:26;;;;;;;;;;;;;;;;;;5048487;28;19925;-66
2022/01/10 05:05:54;;;;;;;;;;;;;;;;;;5047176;28;20020;-67
2022/01/10 05:08:21;;;;;;;;;;;;;;;;;;5047577;28;19925;-67
2022/01/10 05:10:48;;;;;;;;;;;;;;;;;;5044447;28;20110;-65
2022/01/10 05:13:15;;;;;;;;;;;;;;;;;;5042429;28;20341;-66
2022/01/10 05:15:46;;;;;;;;;;;;;;;;;;5047672;28;19925;-66
2022/01/10 05:18:13;;;;;;;;;;;;;;;;;;5041492;28;19924;-66
2022/01/10 05:20:40;;;;;;;;;;;;;;;;;;5047902;28;19924;-66
2022/01/10 05:23:07;;;;;;;;;;;;;;;;;;5046445;28;19947;-66
2022/01/10 05:25:36;;;;;;;;;;;;;;;;;;5048268;28;19925;-66
2022/01/10 05:28:03;;;;;;;;;;;;;;;;;;5045654;28;19983;-66
2022/01/10 05:30:30;;;;;;;;;;;;;;;;;;5048806;28;19928;-66
2022/01/10 05:32:57;;;;;;;;;;;;;;;;;;5043992;28;19931;-66
2022/01/10 05:35:25;;;;;;;;;;;;;;;;;;5048284;28;19925;-66
2022/01/10 05:37:52;;;;;;;;;;;;;;;;;;5049354;28;19924;-67
2022/01/10 05:40:22;;;;;;;;;;;;;;;;;;5048040;28;19925;-66
2022/01/10 05:42:49;;;;;;;;;;;;;;;;;;5044629;28;19925;-66
2022/01/10 05:45:16;;;;;;;;;;;;;;;;;;5045944;28;19979;-65
2022/01/10 05:47:43;;;;;;;;;;;;;;;;;;5046553;28;19933;-67
2022/01/10 05:50:11;;;;;;;;;;;;;;;;;;5047121;28;19933;-66
2022/01/10 05:52:38;;;;;;;;;;;;;;;;;;5044806;28;20298;-66
2022/01/10 05:55:05;;;;;;;;;;;;;;;;;;5044742;28;19932;-65
2022/01/10 05:57:32;;;;;;;;;;;;;;;;;;5045284;28;19929;-66
2022/01/10 05:59:59;;;;;;;;;;;;;;;;;;5053335;28;19924;-67
2022/01/10 06:02:26;;;;;;;;;;;;;;;;;;5054059;28;19936;-67
2022/01/10 06:04:54;;;;;;;;;;;;;;;;;;5050913;28;20016;-66
2022/01/10 06:07:21;;;;;;;;;;;;;;;;;;5050718;28;19928;-67
2022/01/10 06:09:48;;;;;;;;;;;;;;;;;;5049519;28;19931;-66
2022/01/10 06:12:15;;;;;;;;;;;;;;;;;;5051929;28;19931;-66
2022/01/10 06:14:42;;;;;;;;;;;;;;;;;;5053053;28;20011;-66
2022/01/10 06:17:09;;;;;;;;;;;;;;;;;;5052441;28;20294;-66
2022/01/10 06:19:36;;;;;;;;;;;;;;;;;;5052250;28;19947;-65
2022/01/10 06:22:03;;;;;;;;;;;;;;;;;;5047392;28;19924;-66
2022/01/10 06:24:30;;;;;;;;;;;;;;;;;;5049675;28;19937;-66
2022/01/10 06:26:57;;;;;;;;;;;;;;;;;;5048225;28;19940;-67
2022/01/10 06:29:24;;;;;;;;;;;;;;;;;;5046855;28;19925;-67
2022/01/10 06:31:51;;;;;;;;;;;;;;;;;;5046392;28;19936;-67
2022/01/10 06:34:18;;;;;;;;;;;;;;;;;;5053643;28;19948;-66
2022/01/10 06:36:45;;;;;;;;;;;;;;;;;;5049732;28;19924;-66
2022/01/10 06:39:12;;;;;;;;;;;;;;;;;;5048630;28;19925;-67
2022/01/10 06:41:39;;;;;;;;;;;;;;;;;;5052805;28;19967;-66
2022/01/10 06:44:06;;;;;;;;;;;;;;;;;;5048627;28;19932;-65
2022/01/10 06:46:33;;;;;;;;;;;;;;;;;;5053669;28;19924;-65
2022/01/10 06:49:00;;;;;;;;;;;;;;;;;;5048726;28;19933;-65
2022/01/10 06:51:27;;;;;;;;;;;;;;;;;;5046289;28;19924;-64
2022/01/10 06:53:57;;;;;;;;;;;;;;;;;;5043789;28;19925;-64
2022/01/10 06:56:24;;;;;;;;;;;;;;;;;;5046668;28;20452;-64
2022/01/10 06:58:52;;;;;;;;;;;;;;;;;;5046182;28;19936;-64
2022/01/10 07:01:19;;;;;;;;;;;;;;;;;;5055733;28;19925;-65
2022/01/10 07:03:46;;;;;;;;;;;;;;;;;;5046880;28;19924;-65
2022/01/10 07:06:13;;;;;;;;;;;;;;;;;;5066528;22;20354;-64
2022/01/10 07:08:40;;;;;;;;;;;;;;;;;;5065999;28;19956;-65
2022/01/10 07:11:06;;;;;;;;;;;;;;;;;;5069110;28;19932;-64
2022/01/10 07:13:33;;;;;;;;;;;;;;;;;;5067834;28;19925;-65
2022/01/10 07:16:00;;;;;;;;;;;;;;;;;;5064832;28;19932;-65
2022/01/10 07:18:27;;;;;;;;;;;;;;;;;;5062259;28;19947;-65
2022/01/10 07:20:54;;;;;;;;;;;;;;;;;;5058890;28;19925;-65
2022/01/10 07:23:22;;;;;;;;;;;;;;;;;;5069604;28;19924;-65
2022/01/10 07:25:49;;;;;;;;;;;;;;;;;;5069009;28;19925;-65
2022/01/10 07:28:16;;;;;;;;;;;;;;;;;;5066741;28;20303;-66
2022/01/10 07:30:43;;;;;;;;;;;;;;;;;;5063585;28;19940;-64
2022/01/10 07:33:10;;;;;;;;;;;;;;;;;;5061261;28;20317;-63
2022/01/10 07:35:37;;;;;;;;;;;;;;;;;;5069251;28;19932;-63
2022/01/10 07:38:04;;;;;;;;;;;;;;;;;;5066225;28;20400;-63
2022/01/10 07:40:31;;;;;;;;;;;;;;;;;;5067256;28;20583;-63
2022/01/10 07:42:58;;;;;;;;;;;;;;;;;;5064658;28;20396;-64
2022/01/10 07:45:25;;;;;;;;;;;;;;;;;;5067197;28;19960;-65
2022/01/10 07:47:52;;;;;;;;;;;;;;;;;;5064058;28;19924;-63
2022/01/10 07:50:19;;;;;;;;;;;;;;;;;;5066625;28;20347;-64
2022/01/10 07:52:46;;;;;;;;;;;;;;;;;;5062497;28;19925;-64
2022/01/10 07:55:13;;;;;;;;;;;;;;;;;;5067034;28;19944;-64
2022/01/10 07:57:40;;;;;;;;;;;;;;;;;;5064600;28;19925;-64
2022/01/10 08:00:07;;;;;;;;;;;;;;;;;;5064149;28;19924;-64
2022/01/10 08:02:34;;;;;;;;;;;;;;;;;;5066710;28;19925;-64
2022/01/10 08:05:01;;;;;;;;;;;;;;;;;;5050621;28;19933;-64
2022/01/10 08:07:28;;;;;;;;;;;;;;;;;;5058881;28;20347;-64
2022/01/10 08:09:55;;;;;;;;;;;;;;;;;;5061376;28;19925;-64
2022/01/10 08:12:22;;;;;;;;;;;;;;;;;;5063655;28;19934;-64
2022/01/10 08:14:49;;;;;;;;;;;;;;;;;;5052818;28;20310;-64
2022/01/10 08:17:16;;;;;;;;;;;;;;;;;;5052253;28;19925;-65
2022/01/10 08:19:43;;;;;;;;;;;;;;;;;;5058118;28;19936;-64
2022/01/10 08:22:09;;;;;;;;;;;;;;;;;;5065039;28;19932;-63
2022/01/10 08:24:36;;;;;;;;;;;;;;;;;;5059654;28;19924;-63
2022/01/10 08:27:03;;;;;;;;;;;;;;;;;;5063110;28;19931;-63
2022/01/10 08:29:30;;;;;;;;;;;;;;;;;;5060176;28;19925;-63
2022/01/10 08:31:57;;;;;;;;;;;;;;;;;;5061086;28;19925;-64
2022/01/10 08:34:25;;;;;;;;;;;;;;;;;;5064166;28;20015;-64
2022/01/10 08:36:51;;;;;;;;;;;;;;;;;;5065691;28;19925;-64
2022/01/10 08:39:18;;;;;;;;;;;;;;;;;;5060665;28;19924;-63
2022/01/10 08:41:45;;;;;;;;;;;;;;;;;;5064328;28;19940;-64
2022/01/10 08:44:14;;;;;;;;;;;;;;;;;;5056129;28;19940;-64
2022/01/10 08:46:41;;;;;;;;;;;;;;;;;;5061077;28;19929;-64
2022/01/10 08:49:08;;;;;;;;;;;;;;;;;;5060290;28;20120;-64
2022/01/10 08:51:35;;;;;;;;;;;;;;;;;;5063539;28;20488;-64
2022/01/10 08:54:02;;;;;;;;;;;;;;;;;;5058380;28;19990;-64
2022/01/10 08:56:29;;;;;;;;;;;;;;;;;;5065574;28;19936;-64
2022/01/10 08:58:56;;;;;;;;;;;;;;;;;;5062004;28;19925;-64
2022/01/10 09:01:23;;;;;;;;;;;;;;;;;;5058787;28;21014;-64
2022/01/10 09:03:50;;;;;;;;;;;;;;;;;;5064996;28;19930;-65
2022/01/10 09:06:17;;;;;;;;;;;;;;;;;;5062402;28;19928;-64
2022/01/10 09:08:43;;;;;;;;;;;;;;;;;;5060332;28;20332;-65
2022/01/10 09:11:10;;;;;;;;;;;;;;;;;;5062324;28;19929;-65
2022/01/10 09:13:37;;;;;;;;;;;;;;;;;;5065873;28;19930;-65
2022/01/10 09:16:06;;;;;;;;;;;;;;;;;;5060976;28;19932;-65
2022/01/10 09:18:33;;;;;;;;;;;;;;;;;;5058721;28;20207;-65
2022/01/10 09:21:00;;;;;;;;;;;;;;;;;;5062853;28;19936;-65
2022/01/10 09:23:27;;;;;;;;;;;;;;;;;;5059829;28;19999;-65
2022/01/10 09:25:54;;;;;;;;;;;;;;;;;;5062800;28;20482;-65
2022/01/10 09:28:21;;;;;;;;;;;;;;;;;;5063418;28;19974;-65
2022/01/10 09:30:48;;;;;;;;;;;;;;;;;;5060717;28;19947;-65
2022/01/10 09:33:15;;;;;;;;;;;;;;;;;;5062388;28;19924;-65
2022/01/10 09:35:43;;;;;;;;;;;;;;;;;;5053087;28;19946;-65
2022/01/10 09:38:10;;;;;;;;;;;;;;;;;;5063621;28;19968;-65
2022/01/10 09:40:36;;;;;;;;;;;;;;;;;;5063249;28;19935;-65
2022/01/10 09:43:03;;;;;;;;;;;;;;;;;;5062626;28;19935;-65
2022/01/10 09:45:30;;;;;;;;;;;;;;;;;;5062315;28;19939;-64
2022/01/10 09:48:00;;;;;;;;;;;;;;;;;;5061397;28;19924;-65
2022/01/10 09:50:27;;;;;;;;;;;;;;;;;;5057881;28;19933;-64
2022/01/10 09:52:54;;;;;;;;;;;;;;;;;;5056047;28;19925;-64
2022/01/10 09:55:21;;;;;;;;;;;;;;;;;;5059214;28;20396;-66
2022/01/10 09:57:48;;;;;;;;;;;;;;;;;;5063083;28;19930;-66
2022/01/10 10:00:15;;;;;;;;;;;;;;;;;;5064279;28;19940;-65
2022/01/10 10:02:42;;;;;;;;;;;;;;;;;;5057944;28;19932;-63
2022/01/10 10:05:09;;;;;;;;;;;;;;;;;;5063567;28;19931;-63
2022/01/10 10:07:36;;;;;;;;;;;;;;;;;;5062028;28;20301;-63
2022/01/10 10:10:07;;;;;;;;;;;;;;;;;;5063804;28;19931;-64
2022/01/10 10:12:34;;;;;;;;;;;;;;;;;;5063131;28;20036;-64
2022/01/10 10:15:01;;;;;;;;;;;;;;;;;;5056950;28;19951;-65
2022/01/10 10:17:28;;;;;;;;;;;;;;;;;;5058145;28;19925;-64
2022/01/10 10:19:55;;;;;;;;;;;;;;;;;;5061190;28;19939;-64
2022/01/10 10:22:22;;;;;;;;;;;;;;;;;;5063330;28;19924;-65
2022/01/10 10:24:49;;;;;;;;;;;;;;;;;;5056399;28;19924;-65
2022/01/10 10:27:16;;;;;;;;;;;;;;;;;;5058713;28;19932;-64
2022/01/10 10:29:42;;;;;;;;;;;;;;;;;;5052295;28;20385;-65
2022/01/10 10:32:09;;;;;;;;;;;;;;;;;;5065659;28;19924;-64
2022/01/10 10:34:36;;;;;;;;;;;;;;;;;;5060750;28;19924;-65
2022/01/10 10:37:03;;;;;;;;;;;;;;;;;;5060613;28;19952;-65
2022/01/10 10:39:30;;;;;;;;;;;;;;;;;;5065095;28;19932;-64
2022/01/10 10:41:58;;;;;;;;;;;;;;;;;;5061280;28;19924;-65
2022/01/10 10:44:25;;;;;;;;;;;;;;;;;;5054148;28;19939;-64
2022/01/10 10:46:52;;;;;;;;;;;;;;;;;;5060889;28;19925;-65
2022/01/10 10:49:20;;;;;;;;;;;;;;;;;;5066009;28;20019;-64
2022/01/10 10:51:47;;;;;;;;;;;;;;;;;;5057847;28;19925;-65
2022/01/10 10:54:16;;;;;;;;;;;;;;;;;;5052580;28;19932;-64
2022/01/10 10:56:43;;;;;;;;;;;;;;;;;;5059749;28;20028;-64
2022/01/10 10:59:11;;;;;;;;;;;;;;;;;;5055664;28;19928;-65
2022/01/10 11:01:38;;;;;;;;;;;;;;;;;;5067277;28;19978;-65
2022/01/10 11:04:05;;;;;;;;;;;;;;;;;;5059349;28;19924;-65
2022/01/10 11:06:32;;;;;;;;;;;;;;;;;;5060723;28;19929;-65
2022/01/10 11:08:59;;;;;;;;;;;;;;;;;;5063609;28;19924;-65
2022/01/10 11:11:26;;;;;;;;;;;;;;;;;;5062221;28;20156;-67
2022/01/10 11:13:55;;;;;;;;;;;;;;;;;;5057639;28;20435;-65
2022/01/10 11:16:22;;;;;;;;;;;;;;;;;;5048114;28;19936;-65
2022/01/10 11:18:49;;;;;;;;;;;;;;;;;;5066654;28;20293;-64
2022/01/10 11:21:16;;;;;;;;;;;;;;;;;;5058128;28;19924;-65
2022/01/10 11:23:44;;;;;;;;;;;;;;;;;;5066529;28;20374;-65
2022/01/10 11:26:11;;;;;;;;;;;;;;;;;;5060989;28;19932;-64
2022/01/10 11:28:38;;;;;;;;;;;;;;;;;;5064453;28;19933;-64
2022/01/10 11:31:07;;;;;;;;;;;;;;;;;;5067572;28;19925;-64
2022/01/10 11:33:36;;;;;;;;;;;;;;;;;;5067087;28;20491;-64
2022/01/10 11:36:03;;;;;;;;;;;;;;;;;;5062575;28;19925;-64
2022/01/10 11:38:30;;;;;;;;;;;;;;;;;;5064726;28;19929;-65
2022/01/10 11:40:57;;;;;;;;;;;;;;;;;;5059025;28;20019;-64
2022/01/10 11:43:24;;;;;;;;;;;;;;;;;;5064554;28;20012;-64
2022/01/10 11:45:51;;;;;;;;;;;;;;;;;;5062940;28;20006;-66
2022/01/10 11:48:18;;;;;;;;;;;;;;;;;;5068279;28;19925;-66
2022/01/10 11:50:45;;;;;;;;;;;;;;;;;;5067933;28;19931;-66
2022/01/10 11:53:13;;;;;;;;;;;;;;;;;;5068863;28;19925;-65
2022/01/10 11:55:40;;;;;;;;;;;;;;;;;;5062043;28;19931;-64
2022/01/10 11:58:07;;;;;;;;;;;;;;;;;;5047184;28;20175;-64
2022/01/10 12:00:34;;;;;;;;;;;;;;;;;;5056651;28;20385;-65
2022/01/10 12:03:01;;;;;;;;;;;;;;;;;;5053556;28;19970;-65
2022/01/10 12:05:28;;;;;;;;;;;;;;;;;;5054240;28;20342;-65
2022/01/10 12:07:55;;;;;;;;;;;;;;;;;;5054560;28;19929;-64
2022/01/10 12:10:22;;;;;;;;;;;;;;;;;;5048817;28;20791;-64
2022/01/10 12:12:53;;;;;;;;;;;;;;;;;;5053719;28;19932;-65
2022/01/10 12:15:20;;;;;;;;;;;;;;;;;;5059413;28;19968;-65
2022/01/10 12:17:47;;;;;;;;;;;;;;;;;;5057075;28;20067;-65
2022/01/10 12:20:14;;;;;;;;;;;;;;;;;;5051836;28;19932;-65
2022/01/10 12:22:41;;;;;;;;;;;;;;;;;;5049651;28;20305;-65
2022/01/10 12:25:08;;;;;;;;;;;;;;;;;;5048273;28;19933;-65
2022/01/10 12:27:35;;;;;;;;;;;;;;;;;;5046840;28;19989;-65
2022/01/10 12:30:02;;;;;;;;;;;;;;;;;;5046011;28;19941;-65
2022/01/10 12:32:29;;;;;;;;;;;;;;;;;;5048663;28;19940;-66
2022/01/10 12:34:56;;;;;;;;;;;;;;;;;;5048070;28;19932;-65
2022/01/10 12:37:23;;;;;;;;;;;;;;;;;;5044331;28;20385;-65
2022/01/10 12:39:50;;;;;;;;;;;;;;;;;;5045622;28;19932;-65
2022/01/10 12:42:17;;;;;;;;;;;;;;;;;;5047104;28;19932;-65
2022/01/10 12:44:44;;;;;;;;;;;;;;;;;;5047296;28;19928;-65
2022/01/10 12:47:11;;;;;;;;;;;;;;;;;;5046500;28;19933;-65
2022/01/10 12:49:39;;;;;;;;;;;;;;;;;;5048960;28;19931;-64
2022/01/10 12:52:06;;;;;;;;;;;;;;;;;;5045524;28;19936;-64
2022/01/10 12:54:33;;;;;;;;;;;;;;;;;;5046930;28;19932;-64
2022/01/10 12:57:00;;;;;;;;;;;;;;;;;;5049088;28;20035;-64
2022/01/10 12:59:27;;;;;;;;;;;;;;;;;;5047397;28;20410;-65
2022/01/10 13:01:55;;;;;;;;;;;;;;;;;;5043399;28;19948;-65
2022/01/10 13:04:22;;;;;;;;;;;;;;;;;;5047867;28;20023;-65
2022/01/10 13:06:49;;;;;;;;;;;;;;;;;;5061782;22;19909;-65
2022/01/10 13:09:16;;;;;;;;;;;;;;;;;;5034892;28;19929;-65
2022/01/10 13:11:45;;;;;;;;;;;;;;;;;;5038493;28;19933;-66
2022/01/10 13:14:12;;;;;;;;;;;;;;;;;;5039716;28;20366;-65
2022/01/10 13:16:39;;;;;;;;;;;;;;;;;;5038569;28;19962;-66
2022/01/10 13:19:06;;;;;;;;;;;;;;;;;;5030424;28;20424;-66
2022/01/10 13:21:35;;;;;;;;;;;;;;;;;;5033950;28;20157;-66
2022/01/10 13:24:02;;;;;;;;;;;;;;;;;;5038331;28;19979;-66
2022/01/10 13:26:29;;;;;;;;;;;;;;;;;;5035579;28;19935;-67
2022/01/10 13:28:56;;;;;;;;;;;;;;;;;;5032882;28;19944;-65
2022/01/10 13:31:23;;;;;;;;;;;;;;;;;;5031429;28;19928;-67
2022/01/10 13:33:50;;;;;;;;;;;;;;;;;;5032025;28;19933;-67
2022/01/10 13:36:17;;;;;;;;;;;;;;;;;;5040550;28;19925;-66
2022/01/10 13:38:44;;;;;;;;;;;;;;;;;;5047669;28;19929;-67
2022/01/10 13:41:11;;;;;;;;;;;;;;;;;;5044560;28;19925;-66
2022/01/10 13:43:38;;;;;;;;;;;;;;;;;;5047526;28;19925;-65
2022/01/10 13:46:07;;;;;;;;;;;;;;;;;;5031625;28;19929;-66
2022/01/10 13:48:34;;;;;;;;;;;;;;;;;;5033894;28;19932;-64
2022/01/10 13:51:01;;;;;;;;;;;;;;;;;;5030711;28;19998;-64
2022/01/10 13:53:29;;;;;;;;;;;;;;;;;;5033000;28;19939;-65
2022/01/10 13:55:56;;;;;;;;;;;;;;;;;;5030979;28;19935;-65
2022/01/10 13:58:23;;;;;;;;;;;;;;;;;;5030971;28;20409;-64
2022/01/10 14:00:50;;;;;;;;;;;;;;;;;;5031789;28;20027;-66
2022/01/10 14:03:16;;;;;;;;;;;;;;;;;;5031742;28;19943;-64
2022/01/10 14:05:43;;;;;;;;;;;;;;;;;;5031198;28;19983;-66
2022/01/10 14:08:10;;;;;;;;;;;;;;;;;;5043928;28;19933;-65
2022/01/10 14:10:37;;;;;;;;;;;;;;;;;;5044534;28;20362;-66
2022/01/10 14:13:04;;;;;;;;;;;;;;;;;;5044551;28;19929;-65
2022/01/10 14:15:31;;;;;;;;;;;;;;;;;;5046660;28;19936;-65
2022/01/10 14:17:59;;;;;;;;;;;;;;;;;;5047020;28;20295;-65
2022/01/10 14:20:26;;;;;;;;;;;;;;;;;;5046471;28;20019;-65
2022/01/10 14:22:53;;;;;;;;;;;;;;;;;;5047015;28;19933;-64
2022/01/10 14:25:22;;;;;;;;;;;;;;;;;;5047037;28;19924;-64
2022/01/10 14:27:49;;;;;;;;;;;;;;;;;;5047813;28;19925;-65
2022/01/10 14:30:17;;;;;;;;;;;;;;;;;;5046405;28;19932;-64
2022/01/10 14:32:44;;;;;;;;;;;;;;;;;;5046690;28;20019;-64
2022/01/10 14:35:11;;;;;;;;;;;;;;;;;;5044205;28;19925;-65
2022/01/10 14:37:38;;;;;;;;;;;;;;;;;;5045666;28;19939;-64
2022/01/10 14:40:05;;;;;;;;;;;;;;;;;;5050937;28;20318;-64
2022/01/10 14:42:32;;;;;;;;;;;;;;;;;;5049914;28;19931;-65
2022/01/10 14:44:59;;;;;;;;;;;;;;;;;;5050126;28;19924;-64
2022/01/10 14:47:26;;;;;;;;;;;;;;;;;;5045924;28;19933;-64
2022/01/10 14:49:53;;;;;;;;;;;;;;;;;;5044850;28;19935;-64
2022/01/10 14:52:20;;;;;;;;;;;;;;;;;;5047715;28;19928;-68
2022/01/10 14:54:47;;;;;;;;;;;;;;;;;;5043475;28;19933;-69
2022/01/10 14:57:14;;;;;;;;;;;;;;;;;;5049618;28;19928;-69
2022/01/10 14:59:41;;;;;;;;;;;;;;;;;;5044472;28;19925;-69
2022/01/10 15:02:08;;;;;;;;;;;;;;;;;;5046818;28;20275;-68
2022/01/10 15:04:35;;;;;;;;;;;;;;;;;;5048481;28;20283;-68
2022/01/10 15:07:02;;;;;;;;;;;;;;;;;;5049640;28;20015;-65
2022/01/10 15:09:29;;;;;;;;;;;;;;;;;;5046098;28;19931;-65
2022/01/10 15:11:56;;;;;;;;;;;;;;;;;;5049417;28;19924;-64
2022/01/10 15:14:23;;;;;;;;;;;;;;;;;;5043408;28;19945;-65
2022/01/10 15:16:50;;;;;;;;;;;;;;;;;;5048632;28;19925;-66
2022/01/10 15:19:16;;;;;;;;;;;;;;;;;;5048305;28;19929;-66
2022/01/10 15:21:44;;;;;;;;;;;;;;;;;;5049381;28;19933;-65
2022/01/10 15:24:11;;;;;;;;;;;;;;;;;;5048263;28;19935;-65
2022/01/10 15:26:38;;;;;;;;;;;;;;;;;;5047850;28;19932;-65
2022/01/10 15:29:06;;;;;;;;;;;;;;;;;;5041107;28;19929;-66
2022/01/10 15:31:33;;;;;;;;;;;;;;;;;;5047056;28;19924;-65
2022/01/10 15:34:00;;;;;;;;;;;;;;;;;;5047534;28;19925;-66
2022/01/10 15:36:27;;;;;;;;;;;;;;;;;;5046669;28;19939;-64
2022/01/10 15:38:54;;;;;;;;;;;;;;;;;;5044333;28;19940;-63
2022/01/10 15:41:21;;;;;;;;;;;;;;;;;;5045001;28;19932;-64
2022/01/10 15:43:48;;;;;;;;;;;;;;;;;;5046928;28;20282;-63
2022/01/10 15:46:16;;;;;;;;;;;;;;;;;;5046019;28;19925;-64
2022/01/10 15:48:43;;;;;;;;;;;;;;;;;;5045876;28;19932;-64
2022/01/10 15:51:10;;;;;;;;;;;;;;;;;;5047680;28;19936;-64
2022/01/10 15:53:37;;;;;;;;;;;;;;;;;;5047194;28;19929;-65
2022/01/10 15:56:04;;;;;;;;;;;;;;;;;;5046884;28;19928;-65
2022/01/10 15:58:34;;;;;;;;;;;;;;;;;;5047928;28;19925;-65
2022/01/10 16:01:01;;;;;;;;;;;;;;;;;;5045436;28;19925;-63
2022/01/10 16:03:28;;;;;;;;;;;;;;;;;;5046640;28;20019;-63
2022/01/10 16:05:55;;;;;;;;;;;;;;;;;;5043607;28;19929;-64
2022/01/10 16:08:22;;;;;;;;;;;;;;;;;;5042980;28;19925;-64
2022/01/10 16:10:50;;;;;;;;;;;;;;;;;;5045608;28;19929;-64
2022/01/10 16:13:17;;;;;;;;;;;;;;;;;;5047039;28;20024;-64
2022/01/10 16:15:44;;;;;;;;;;;;;;;;;;5049749;28;19979;-63
2022/01/10 16:18:11;;;;;;;;;;;;;;;;;;5048207;28;20035;-64
2022/01/10 16:20:38;;;;;;;;;;;;;;;;;;5044324;28;19972;-64
2022/01/10 16:23:05;;;;;;;;;;;;;;;;;;5047346;28;19924;-64
2022/01/10 16:25:32;;;;;;;;;;;;;;;;;;5048594;28;20302;-64
2022/01/10 16:27:59;;;;;;;;;;;;;;;;;;5046625;28;19925;-64
2022/01/10 16:30:27;;;;;;;;;;;;;;;;;;5045880;28;20386;-65
2022/01/10 16:32:54;;;;;;;;;;;;;;;;;;5044074;28;20398;-65
2022/01/10 16:35:20;;;;;;;;;;;;;;;;;;5050087;28;19925;-66
2022/01/10 16:37:48;;;;;;;;;;;;;;;;;;5046213;28;19925;-66
2022/01/10 16:40:15;;;;;;;;;;;;;;;;;;5047831;28;20011;-66
2022/01/10 16:42:42;;;;;;;;;;;;;;;;;;5046086;28;19967;-65
2022/01/10 16:45:09;;;;;;;;;;;;;;;;;;5043699;28;20004;-66
2022/01/10 16:47:36;;;;;;;;;;;;;;;;;;5045016;28;19925;-66
2022/01/10 16:50:03;;;;;;;;;;;;;;;;;;5046837;28;19925;-66
2022/01/10 16:52:30;;;;;;;;;;;;;;;;;;5043969;28;19925;-66